sensor_id;sensor_type;location;lat;lon;timestamp;temperature;humidity
69938;DHT22;57248;47.320;15.998;2023-02-26T00:00:46;0.88;84.81
69938;DHT22;57248;47.320;15.998;2023-02-26T00:03:18;0.88;85.29
69938;DHT22;57248;47.320;15.998;2023-02-26T00:05:50;0.95;84.94
69938;DHT22;57248;47.320;15.998;2023-02-26T00:08:29;0.87;85.10
69938;DHT22;57248;47.320;15.998;2023-02-26T00:11:06;0.85;85.49
69938;DHT22;57248;47.320;15.998;2023-02-26T00:13:40;0.81;85.83
69938;DHT22;57248;47.320;15.998;2023-02-26T00:16:28;0.76;86.33
69938;DHT22;57248;47.320;15.998;2023-02-26T00:19:04;0.79;86.39
69938;DHT22;57248;47.320;15.998;2023-02-26T00:21:36;0.80;85.10
69938;DHT22;57248;47.320;15.998;2023-02-26T00:24:08;0.76;85.50
69938;DHT22;57248;47.320;15.998;2023-02-26T00:26:40;0.81;83.78
69938;DHT22;57248;47.320;15.998;2023-02-26T00:29:12;0.90;82.78
69938;DHT22;57248;47.320;15.998;2023-02-26T00:31:44;0.84;82.38
69938;DHT22;57248;47.320;15.998;2023-02-26T00:34:11;0.85;82.51
69938;DHT22;57248;47.320;15.998;2023-02-26T00:37:19;0.93;82.05
69938;DHT22;57248;47.320;15.998;2023-02-26T00:40:12;0.95;81.04
69938;DHT22;57248;47.320;15.998;2023-02-26T00:42:46;0.91;81.59
69938;DHT22;57248;47.320;15.998;2023-02-26T00:45:18;0.85;82.36
69938;DHT22;57248;47.320;15.998;2023-02-26T00:50:31;0.87;81.33
69938;DHT22;57248;47.320;15.998;2023-02-26T00:55:35;0.85;81.60
69938;DHT22;57248;47.320;15.998;2023-02-26T00:58:07;0.91;81.67
69938;DHT22;57248;47.320;15.998;2023-02-26T01:00:39;0.90;81.90
69938;DHT22;57248;47.320;15.998;2023-02-26T01:03:04;0.87;82.48
69938;DHT22;57248;47.320;15.998;2023-02-26T01:05:44;0.88;82.83
69938;DHT22;57248;47.320;15.998;2023-02-26T01:11:24;0.84;82.93
69938;DHT22;57248;47.320;15.998;2023-02-26T01:13:50;0.90;82.79
69938;DHT22;57248;47.320;15.998;2023-02-26T01:16:26;0.88;83.22
69938;DHT22;57248;47.320;15.998;2023-02-26T01:19:13;0.80;84.39
69938;DHT22;57248;47.320;15.998;2023-02-26T01:21:52;0.76;84.05
69938;DHT22;57248;47.320;15.998;2023-02-26T01:24:29;0.72;84.58
69938;DHT22;57248;47.320;15.998;2023-02-26T01:27:01;0.69;84.35
69938;DHT22;57248;47.320;15.998;2023-02-26T01:29:33;0.70;84.63
69938;DHT22;57248;47.320;15.998;2023-02-26T01:32:18;0.64;84.97
69938;DHT22;57248;47.320;15.998;2023-02-26T01:35:01;0.63;84.77
69938;DHT22;57248;47.320;15.998;2023-02-26T01:38:01;0.70;84.92
69938;DHT22;57248;47.320;15.998;2023-02-26T01:43:35;0.74;85.10
69938;DHT22;57248;47.320;15.998;2023-02-26T01:48:52;0.74;85.19
69938;DHT22;57248;47.320;15.998;2023-02-26T01:54:26;0.85;84.67
69938;DHT22;57248;47.320;15.998;2023-02-26T01:57:11;0.84;84.54
69938;DHT22;57248;47.320;15.998;2023-02-26T01:59:47;0.95;83.65
69938;DHT22;57248;47.320;15.998;2023-02-26T02:02:23;0.80;84.17
69938;DHT22;57248;47.320;15.998;2023-02-26T02:04:58;0.81;84.21
69938;DHT22;57248;47.320;15.998;2023-02-26T02:07:39;0.73;84.41
69938;DHT22;57248;47.320;15.998;2023-02-26T02:10:11;0.74;84.48
69938;DHT22;57248;47.320;15.998;2023-02-26T02:15:21;0.84;83.98
69938;DHT22;57248;47.320;15.998;2023-02-26T02:18:19;0.77;84.88
69938;DHT22;57248;47.320;15.998;2023-02-26T02:27:34;0.94;83.38
69938;DHT22;57248;47.320;15.998;2023-02-26T02:33:17;0.83;84.07
69938;DHT22;57248;47.320;15.998;2023-02-26T02:35:55;0.83;84.15
69938;DHT22;57248;47.320;15.998;2023-02-26T02:39:11;0.69;84.54
69938;DHT22;57248;47.320;15.998;2023-02-26T02:41:49;0.74;84.56
69938;DHT22;57248;47.320;15.998;2023-02-26T02:44:25;0.59;85.28
69938;DHT22;57248;47.320;15.998;2023-02-26T02:46:59;0.70;85.22
69938;DHT22;57248;47.320;15.998;2023-02-26T02:49:36;0.52;86.14
69938;DHT22;57248;47.320;15.998;2023-02-26T02:52:30;0.41;87.19
69938;DHT22;57248;47.320;15.998;2023-02-26T02:55:09;0.41;86.86
69938;DHT22;57248;47.320;15.998;2023-02-26T02:57:49;0.36;86.94
69938;DHT22;57248;47.320;15.998;2023-02-26T03:00:23;0.39;87.39
69938;DHT22;57248;47.320;15.998;2023-02-26T03:05:39;0.57;86.30
69938;DHT22;57248;47.320;15.998;2023-02-26T03:08:27;0.59;86.85
69938;DHT22;57248;47.320;15.998;2023-02-26T03:11:01;0.52;86.17
69938;DHT22;57248;47.320;15.998;2023-02-26T03:13:34;0.54;86.58
69938;DHT22;57248;47.320;15.998;2023-02-26T03:19:22;0.36;87.72
69938;DHT22;57248;47.320;15.998;2023-02-26T03:22:17;0.49;86.63
69938;DHT22;57248;47.320;15.998;2023-02-26T03:28:06;0.45;87.84
69938;DHT22;57248;47.320;15.998;2023-02-26T03:30:47;0.42;87.74
69938;DHT22;57248;47.320;15.998;2023-02-26T03:36:09;0.30;88.10
69938;DHT22;57248;47.320;15.998;2023-02-26T03:39:03;0.42;87.71
69938;DHT22;57248;47.320;15.998;2023-02-26T03:41:57;0.36;88.07
69938;DHT22;57248;47.320;15.998;2023-02-26T03:44:58;0.28;88.30
69938;DHT22;57248;47.320;15.998;2023-02-26T03:47:34;0.29;87.38
69938;DHT22;57248;47.320;15.998;2023-02-26T03:50:23;0.29;86.69
69938;DHT22;57248;47.320;15.998;2023-02-26T03:53:21;0.23;86.12
69938;DHT22;57248;47.320;15.998;2023-02-26T03:56:12;0.18;85.71
69938;DHT22;57248;47.320;15.998;2023-02-26T03:59:24;0.18;86.43
69938;DHT22;57248;47.320;15.998;2023-02-26T04:02:23;0.38;85.00
69938;DHT22;57248;47.320;15.998;2023-02-26T04:05:11;0.32;85.74
69938;DHT22;57248;47.320;15.998;2023-02-26T04:07:47;0.26;86.63
69938;DHT22;57248;47.320;15.998;2023-02-26T04:10:41;0.22;86.28
69938;DHT22;57248;47.320;15.998;2023-02-26T04:13:14;0.15;85.65
69938;DHT22;57248;47.320;15.998;2023-02-26T04:15:47;0.18;84.23
69938;DHT22;57248;47.320;15.998;2023-02-26T04:18:20;0.12;84.34
69938;DHT22;57248;47.320;15.998;2023-02-26T04:20:52;0.11;84.06
69938;DHT22;57248;47.320;15.998;2023-02-26T04:23:25;0.08;83.72
69938;DHT22;57248;47.320;15.998;2023-02-26T04:25:57;0.14;82.35
69938;DHT22;57248;47.320;15.998;2023-02-26T04:28:30;0.19;81.30
69938;DHT22;57248;47.320;15.998;2023-02-26T04:30:55;0.22;79.97
69938;DHT22;57248;47.320;15.998;2023-02-26T04:33:27;0.19;80.83
69938;DHT22;57248;47.320;15.998;2023-02-26T04:35:59;0.25;79.05
69938;DHT22;57248;47.320;15.998;2023-02-26T04:38:31;0.16;80.13
69938;DHT22;57248;47.320;15.998;2023-02-26T04:41:03;0.12;80.88
69938;DHT22;57248;47.320;15.998;2023-02-26T04:43:35;0.16;79.50
69938;DHT22;57248;47.320;15.998;2023-02-26T04:46:18;0.18;78.91
69938;DHT22;57248;47.320;15.998;2023-02-26T04:48:52;0.21;78.73
69938;DHT22;57248;47.320;15.998;2023-02-26T04:51:24;0.16;79.04
69938;DHT22;57248;47.320;15.998;2023-02-26T04:54:03;0.18;78.66
69938;DHT22;57248;47.320;15.998;2023-02-26T04:56:37;0.15;78.13
69938;DHT22;57248;47.320;15.998;2023-02-26T04:59:09;0.15;77.89
69938;DHT22;57248;47.320;15.998;2023-02-26T05:01:35;0.12;77.44
69938;DHT22;57248;47.320;15.998;2023-02-26T05:04:07;0.08;77.86
69938;DHT22;57248;47.320;15.998;2023-02-26T05:06:42;0.15;75.97
69938;DHT22;57248;47.320;15.998;2023-02-26T05:09:28;0.05;77.57
69938;DHT22;57248;47.320;15.998;2023-02-26T05:12:00;0.04;78.00
69938;DHT22;57248;47.320;15.998;2023-02-26T05:14:32;0.05;76.87
69938;DHT22;57248;47.320;15.998;2023-02-26T05:17:05;0.05;77.07
69938;DHT22;57248;47.320;15.998;2023-02-26T05:19:37;0.06;76.13
69938;DHT22;57248;47.320;15.998;2023-02-26T05:22:09;-0.02;77.07
69938;DHT22;57248;47.320;15.998;2023-02-26T05:24:34;-0.02;76.50
69938;DHT22;57248;47.320;15.998;2023-02-26T05:27:07;-0.05;76.63
69938;DHT22;57248;47.320;15.998;2023-02-26T05:29:43;-0.07;76.99
69938;DHT22;57248;47.320;15.998;2023-02-26T05:32:16;-0.03;76.10
69938;DHT22;57248;47.320;15.998;2023-02-26T05:34:48;-0.12;77.00
69938;DHT22;57248;47.320;15.998;2023-02-26T05:37:20;-0.07;76.67
69938;DHT22;57248;47.320;15.998;2023-02-26T05:39:52;-0.17;78.54
69938;DHT22;57248;47.320;15.998;2023-02-26T05:42:24;-0.22;78.37
69938;DHT22;57248;47.320;15.998;2023-02-26T05:44:56;-0.23;78.66
69938;DHT22;57248;47.320;15.998;2023-02-26T05:47:28;-0.17;78.84
69938;DHT22;57248;47.320;15.998;2023-02-26T05:50:00;-0.13;79.32
69938;DHT22;57248;47.320;15.998;2023-02-26T05:52:32;-0.15;79.92
69938;DHT22;57248;47.320;15.998;2023-02-26T05:55:04;-0.22;79.54
69938;DHT22;57248;47.320;15.998;2023-02-26T05:57:37;-0.20;79.55
69938;DHT22;57248;47.320;15.998;2023-02-26T06:00:09;-0.12;80.11
69938;DHT22;57248;47.320;15.998;2023-02-26T06:02:42;0.09;80.53
69938;DHT22;57248;47.320;15.998;2023-02-26T06:05:14;-0.07;79.45
69938;DHT22;57248;47.320;15.998;2023-02-26T06:07:46;-0.12;78.79
69938;DHT22;57248;47.320;15.998;2023-02-26T06:10:25;-0.07;76.89
69938;DHT22;57248;47.320;15.998;2023-02-26T06:12:57;0.01;75.16
69938;DHT22;57248;47.320;15.998;2023-02-26T06:15:29;0.02;76.11
69938;DHT22;57248;47.320;15.998;2023-02-26T06:18:01;-0.01;75.37
69938;DHT22;57248;47.320;15.998;2023-02-26T06:20:33;0.08;75.05
69938;DHT22;57248;47.320;15.998;2023-02-26T06:23:05;0.19;73.89
69938;DHT22;57248;47.320;15.998;2023-02-26T06:25:37;0.26;73.07
69938;DHT22;57248;47.320;15.998;2023-02-26T06:28:09;1.11;78.86
69938;DHT22;57248;47.320;15.998;2023-02-26T06:30:41;0.63;71.51
69938;DHT22;57248;47.320;15.998;2023-02-26T06:33:13;0.62;72.85
69938;DHT22;57248;47.320;15.998;2023-02-26T06:35:45;0.64;71.41
69938;DHT22;57248;47.320;15.998;2023-02-26T06:38:18;0.73;72.56
69938;DHT22;57248;47.320;15.998;2023-02-26T06:40:50;0.93;71.73
69938;DHT22;57248;47.320;15.998;2023-02-26T06:43:23;0.94;71.98
69938;DHT22;57248;47.320;15.998;2023-02-26T06:45:58;1.00;70.62
69938;DHT22;57248;47.320;15.998;2023-02-26T06:48:30;1.09;71.06
69938;DHT22;57248;47.320;15.998;2023-02-26T06:51:03;1.11;70.73
69938;DHT22;57248;47.320;15.998;2023-02-26T06:53:35;1.18;69.47
69938;DHT22;57248;47.320;15.998;2023-02-26T06:56:07;1.22;69.06
69938;DHT22;57248;47.320;15.998;2023-02-26T06:58:39;1.35;69.87
69938;DHT22;57248;47.320;15.998;2023-02-26T07:01:11;1.30;68.80
69938;DHT22;57248;47.320;15.998;2023-02-26T07:03:43;1.24;68.68
69938;DHT22;57248;47.320;15.998;2023-02-26T07:06:15;1.41;68.31
69938;DHT22;57248;47.320;15.998;2023-02-26T07:08:55;1.48;67.52
69938;DHT22;57248;47.320;15.998;2023-02-26T07:11:28;1.63;66.67
69938;DHT22;57248;47.320;15.998;2023-02-26T07:14:00;1.84;66.80
69938;DHT22;57248;47.320;15.998;2023-02-26T07:16:33;2.41;66.35
69938;DHT22;57248;47.320;15.998;2023-02-26T07:19:05;2.49;65.64
69938;DHT22;57248;47.320;15.998;2023-02-26T07:21:38;2.88;64.36
69938;DHT22;57248;47.320;15.998;2023-02-26T07:24:10;3.31;61.27
69938;DHT22;57248;47.320;15.998;2023-02-26T07:26:43;3.63;60.63
69938;DHT22;57248;47.320;15.998;2023-02-26T07:29:15;4.26;59.61
69938;DHT22;57248;47.320;15.998;2023-02-26T07:31:48;4.22;60.34
69938;DHT22;57248;47.320;15.998;2023-02-26T07:34:20;3.55;60.39
69938;DHT22;57248;47.320;15.998;2023-02-26T07:36:52;3.51;59.98
69938;DHT22;57248;47.320;15.998;2023-02-26T07:39:25;3.68;59.71
69938;DHT22;57248;47.320;15.998;2023-02-26T07:41:57;3.40;59.42
69938;DHT22;57248;47.320;15.998;2023-02-26T07:44:29;3.30;59.34
69938;DHT22;57248;47.320;15.998;2023-02-26T07:47:01;3.34;58.79
69938;DHT22;57248;47.320;15.998;2023-02-26T07:49:33;3.41;59.74
69938;DHT22;57248;47.320;15.998;2023-02-26T07:52:05;3.78;59.40
69938;DHT22;57248;47.320;15.998;2023-02-26T07:54:35;3.33;58.76
69938;DHT22;57248;47.320;15.998;2023-02-26T07:57:09;3.70;58.85
69938;DHT22;57248;47.320;15.998;2023-02-26T07:59:41;4.06;59.55
69938;DHT22;57248;47.320;15.998;2023-02-26T08:02:13;4.49;58.22
69938;DHT22;57248;47.320;15.998;2023-02-26T08:04:45;4.65;57.07
69938;DHT22;57248;47.320;15.998;2023-02-26T08:07:17;5.11;55.60
69938;DHT22;57248;47.320;15.998;2023-02-26T08:09:50;5.54;55.01
69938;DHT22;57248;47.320;15.998;2023-02-26T08:12:22;5.64;53.79
69938;DHT22;57248;47.320;15.998;2023-02-26T08:14:54;6.17;55.10
69938;DHT22;57248;47.320;15.998;2023-02-26T08:17:26;6.83;54.50
69938;DHT22;57248;47.320;15.998;2023-02-26T08:19:58;7.41;53.48
69938;DHT22;57248;47.320;15.998;2023-02-26T08:22:31;7.08;50.89
69938;DHT22;57248;47.320;15.998;2023-02-26T08:25:03;6.59;50.66
69938;DHT22;57248;47.320;15.998;2023-02-26T08:27:35;6.68;51.30
69938;DHT22;57248;47.320;15.998;2023-02-26T08:30:11;6.76;50.27
69938;DHT22;57248;47.320;15.998;2023-02-26T08:32:45;7.31;49.73
69938;DHT22;57248;47.320;15.998;2023-02-26T08:35:17;6.32;49.38
69938;DHT22;57248;47.320;15.998;2023-02-26T08:37:49;6.50;48.65
69938;DHT22;57248;47.320;15.998;2023-02-26T08:40:21;5.52;50.38
69938;DHT22;57248;47.320;15.998;2023-02-26T08:42:54;5.21;51.22
69938;DHT22;57248;47.320;15.998;2023-02-26T08:45:26;5.19;51.33
69938;DHT22;57248;47.320;15.998;2023-02-26T08:47:51;5.59;49.38
69938;DHT22;57248;47.320;15.998;2023-02-26T08:50:26;5.91;49.82
69938;DHT22;57248;47.320;15.998;2023-02-26T08:52:59;7.35;47.71
69938;DHT22;57248;47.320;15.998;2023-02-26T08:55:31;6.49;48.26
69938;DHT22;57248;47.320;15.998;2023-02-26T08:58:03;5.80;48.61
69938;DHT22;57248;47.320;15.998;2023-02-26T09:00:36;6.73;46.16
69938;DHT22;57248;47.320;15.998;2023-02-26T09:03:09;7.86;45.39
69938;DHT22;57248;47.320;15.998;2023-02-26T09:05:41;8.99;43.60
69938;DHT22;57248;47.320;15.998;2023-02-26T09:08:13;9.84;42.28
69938;DHT22;57248;47.320;15.998;2023-02-26T09:10:52;8.71;43.51
69938;DHT22;57248;47.320;15.998;2023-02-26T09:13:24;8.44;43.30
69938;DHT22;57248;47.320;15.998;2023-02-26T09:15:49;8.69;41.80
69938;DHT22;57248;47.320;15.998;2023-02-26T09:18:23;9.48;41.15
69938;DHT22;57248;47.320;15.998;2023-02-26T09:20:55;8.20;44.63
69938;DHT22;57248;47.320;15.998;2023-02-26T09:23:27;10.43;41.97
69938;DHT22;57248;47.320;15.998;2023-02-26T09:25:59;9.27;43.07
69938;DHT22;57248;47.320;15.998;2023-02-26T09:28:32;8.04;45.55
69938;DHT22;57248;47.320;15.998;2023-02-26T09:31:05;9.02;43.61
69938;DHT22;57248;47.320;15.998;2023-02-26T09:33:37;9.06;43.32
69938;DHT22;57248;47.320;15.998;2023-02-26T09:36:12;8.74;42.44
69938;DHT22;57248;47.320;15.998;2023-02-26T09:38:45;7.79;46.09
69938;DHT22;57248;47.320;15.998;2023-02-26T09:41:26;7.50;48.08
69938;DHT22;57248;47.320;15.998;2023-02-26T09:49:32;9.19;42.25
69938;DHT22;57248;47.320;15.998;2023-02-26T09:55:36;9.37;43.28
69938;DHT22;57248;47.320;15.998;2023-02-26T09:58:23;9.80;45.33
69938;DHT22;57248;47.320;15.998;2023-02-26T10:01:03;8.33;46.17
69938;DHT22;57248;47.320;15.998;2023-02-26T10:12:43;9.71;46.27
69938;DHT22;57248;47.320;15.998;2023-02-26T10:15:22;8.13;49.04
69938;DHT22;57248;47.320;15.998;2023-02-26T10:18:03;7.68;48.97
69938;DHT22;57248;47.320;15.998;2023-02-26T10:23:51;6.76;52.11
69938;DHT22;57248;47.320;15.998;2023-02-26T10:26:29;6.36;52.06
69938;DHT22;57248;47.320;15.998;2023-02-26T10:34:57;6.62;51.67
69938;DHT22;57248;47.320;15.998;2023-02-26T10:37:57;8.75;48.45
69938;DHT22;57248;47.320;15.998;2023-02-26T10:43:18;8.45;48.04
69938;DHT22;57248;47.320;15.998;2023-02-26T10:45:59;8.40;48.86
69938;DHT22;57248;47.320;15.998;2023-02-26T10:51:30;7.72;51.01
69938;DHT22;57248;47.320;15.998;2023-02-26T10:54:30;6.71;51.08
69938;DHT22;57248;47.320;15.998;2023-02-26T10:57:07;6.92;51.18
69938;DHT22;57248;47.320;15.998;2023-02-26T10:59:40;6.66;49.32
69938;DHT22;57248;47.320;15.998;2023-02-26T11:02:34;7.03;50.57
69938;DHT22;57248;47.320;15.998;2023-02-26T11:05:22;7.35;49.22
69938;DHT22;57248;47.320;15.998;2023-02-26T11:08:04;8.26;47.70
69938;DHT22;57248;47.320;15.998;2023-02-26T11:10:50;9.32;45.24
69938;DHT22;57248;47.320;15.998;2023-02-26T11:13:25;9.03;41.50
69938;DHT22;57248;47.320;15.998;2023-02-26T11:16:17;9.20;44.47
69938;DHT22;57248;47.320;15.998;2023-02-26T11:18:52;8.16;43.07
69938;DHT22;57248;47.320;15.998;2023-02-26T11:21:29;9.75;42.54
69938;DHT22;57248;47.320;15.998;2023-02-26T11:24:18;11.11;40.78
69938;DHT22;57248;47.320;15.998;2023-02-26T11:27:12;10.63;41.05
69938;DHT22;57248;47.320;15.998;2023-02-26T11:29:47;11.03;39.50
69938;DHT22;57248;47.320;15.998;2023-02-26T11:32:28;11.27;40.30
69938;DHT22;57248;47.320;15.998;2023-02-26T11:35:01;9.11;43.04
69938;DHT22;57248;47.320;15.998;2023-02-26T11:37:37;9.63;40.53
69938;DHT22;57248;47.320;15.998;2023-02-26T11:40:18;9.88;39.49
69938;DHT22;57248;47.320;15.998;2023-02-26T11:42:58;10.26;40.77
69938;DHT22;57248;47.320;15.998;2023-02-26T11:45:34;9.12;43.26
69938;DHT22;57248;47.320;15.998;2023-02-26T11:48:12;8.10;42.23
69938;DHT22;57248;47.320;15.998;2023-02-26T11:50:48;6.79;43.98
69938;DHT22;57248;47.320;15.998;2023-02-26T11:53:43;6.82;44.13
69938;DHT22;57248;47.320;15.998;2023-02-26T11:56:31;6.34;44.72
69938;DHT22;57248;47.320;15.998;2023-02-26T11:59:21;6.77;42.73
69938;DHT22;57248;47.320;15.998;2023-02-26T12:01:53;7.03;42.78
69938;DHT22;57248;47.320;15.998;2023-02-26T12:04:25;7.17;43.00
69938;DHT22;57248;47.320;15.998;2023-02-26T12:07:04;7.03;43.94
69938;DHT22;57248;47.320;15.998;2023-02-26T12:09:37;6.62;43.82
69938;DHT22;57248;47.320;15.998;2023-02-26T12:15:21;6.49;41.93
69938;DHT22;57248;47.320;15.998;2023-02-26T12:20:46;6.82;42.09
69938;DHT22;57248;47.320;15.998;2023-02-26T12:32:12;8.04;40.19
69938;DHT22;57248;47.320;15.998;2023-02-26T12:35:08;8.12;39.75
69938;DHT22;57248;47.320;15.998;2023-02-26T12:38:09;9.63;39.16
69938;DHT22;57248;47.320;15.998;2023-02-26T12:43:53;7.73;40.10
69938;DHT22;57248;47.320;15.998;2023-02-26T12:55:18;7.89;39.44
69938;DHT22;57248;47.320;15.998;2023-02-26T13:04:41;8.26;43.09
69938;DHT22;57248;47.320;15.998;2023-02-26T13:10:43;6.75;43.70
69938;DHT22;57248;47.320;15.998;2023-02-26T13:22:26;6.04;46.59
69938;DHT22;57248;47.320;15.998;2023-02-26T13:27:50;6.49;45.26
69938;DHT22;57248;47.320;15.998;2023-02-26T13:30:40;7.42;43.78
69938;DHT22;57248;47.320;15.998;2023-02-26T13:33:18;7.08;43.38
69938;DHT22;57248;47.320;15.998;2023-02-26T13:36:08;7.04;45.47
69938;DHT22;57248;47.320;15.998;2023-02-26T13:44:47;5.70;48.04
69938;DHT22;57248;47.320;15.998;2023-02-26T13:56:15;5.60;48.08
69938;DHT22;57248;47.320;15.998;2023-02-26T13:58:52;5.73;47.65
69938;DHT22;57248;47.320;15.998;2023-02-26T14:01:31;5.49;49.07
69938;DHT22;57248;47.320;15.998;2023-02-26T14:07:12;4.80;52.51
69938;DHT22;57248;47.320;15.998;2023-02-26T14:09:59;4.54;53.81
69938;DHT22;57248;47.320;15.998;2023-02-26T14:12:42;4.71;53.09
69938;DHT22;57248;47.320;15.998;2023-02-26T14:15:30;4.46;53.53
69938;DHT22;57248;47.320;15.998;2023-02-26T14:18:05;4.15;54.62
69938;DHT22;57248;47.320;15.998;2023-02-26T14:20:49;3.96;56.45
69938;DHT22;57248;47.320;15.998;2023-02-26T14:23:33;3.95;57.80
69938;DHT22;57248;47.320;15.998;2023-02-26T14:26:12;3.65;59.79
69938;DHT22;57248;47.320;15.998;2023-02-26T14:36:57;3.47;60.05
69938;DHT22;57248;47.320;15.998;2023-02-26T14:42:15;3.50;59.92
69938;DHT22;57248;47.320;15.998;2023-02-26T14:44:53;3.26;59.36
69938;DHT22;57248;47.320;15.998;2023-02-26T14:47:29;3.34;59.41
69938;DHT22;57248;47.320;15.998;2023-02-26T14:49:54;3.03;59.99
69938;DHT22;57248;47.320;15.998;2023-02-26T14:52:35;3.03;59.77
69938;DHT22;57248;47.320;15.998;2023-02-26T15:01:18;2.55;60.60
69938;DHT22;57248;47.320;15.998;2023-02-26T15:04:12;2.65;59.75
69938;DHT22;57248;47.320;15.998;2023-02-26T15:12:49;2.54;60.07
69938;DHT22;57248;47.320;15.998;2023-02-26T15:21:26;2.28;61.13
69938;DHT22;57248;47.320;15.998;2023-02-26T15:24:02;2.09;61.52
69938;DHT22;57248;47.320;15.998;2023-02-26T15:26:41;2.15;61.45
69938;DHT22;57248;47.320;15.998;2023-02-26T15:29:16;2.21;62.04
69938;DHT22;57248;47.320;15.998;2023-02-26T15:31:58;2.21;60.82
69938;DHT22;57248;47.320;15.998;2023-02-26T15:34:35;2.18;61.71
69938;DHT22;57248;47.320;15.998;2023-02-26T15:37:18;2.09;61.41
69938;DHT22;57248;47.320;15.998;2023-02-26T15:39:52;2.17;61.46
69938;DHT22;57248;47.320;15.998;2023-02-26T15:42:31;2.06;61.45
69938;DHT22;57248;47.320;15.998;2023-02-26T15:48:02;1.84;62.19
69938;DHT22;57248;47.320;15.998;2023-02-26T15:50:39;1.93;61.97
69938;DHT22;57248;47.320;15.998;2023-02-26T15:53:19;1.94;62.62
69938;DHT22;57248;47.320;15.998;2023-02-26T15:55:55;1.99;62.19
69938;DHT22;57248;47.320;15.998;2023-02-26T15:58:43;1.92;62.63
69938;DHT22;57248;47.320;15.998;2023-02-26T16:01:18;1.87;62.55
69938;DHT22;57248;47.320;15.998;2023-02-26T16:03:52;1.83;63.23
69938;DHT22;57248;47.320;15.998;2023-02-26T16:06:31;1.44;65.49
69938;DHT22;57248;47.320;15.998;2023-02-26T16:09:05;1.34;65.68
69938;DHT22;57248;47.320;15.998;2023-02-26T16:11:46;1.28;65.05
69938;DHT22;57248;47.320;15.998;2023-02-26T16:14:23;1.20;64.75
69938;DHT22;57248;47.320;15.998;2023-02-26T16:16:57;1.22;64.71
69938;DHT22;57248;47.320;15.998;2023-02-26T16:22:31;1.14;65.13
69938;DHT22;57248;47.320;15.998;2023-02-26T16:25:17;1.13;64.51
69938;DHT22;57248;47.320;15.998;2023-02-26T16:27:59;1.07;64.49
69938;DHT22;57248;47.320;15.998;2023-02-26T16:30:34;1.01;64.41
69938;DHT22;57248;47.320;15.998;2023-02-26T16:33:11;0.98;64.76
69938;DHT22;57248;47.320;15.998;2023-02-26T16:35:49;1.00;64.16
69938;DHT22;57248;47.320;15.998;2023-02-26T16:38:32;0.97;64.13
69938;DHT22;57248;47.320;15.998;2023-02-26T16:41:13;1.27;68.91
69938;DHT22;57248;47.320;15.998;2023-02-26T16:43:53;1.00;63.29
69938;DHT22;57248;47.320;15.998;2023-02-26T16:46:42;0.98;63.65
69938;DHT22;57248;47.320;15.998;2023-02-26T16:51:55;0.94;63.91
69938;DHT22;57248;47.320;15.998;2023-02-26T16:57:12;0.90;63.92
69938;DHT22;57248;47.320;15.998;2023-02-26T16:59:53;0.93;64.18
69938;DHT22;57248;47.320;15.998;2023-02-26T17:02:31;0.93;63.92
69938;DHT22;57248;47.320;15.998;2023-02-26T17:05:24;0.88;64.52
69938;DHT22;57248;47.320;15.998;2023-02-26T17:08:14;0.91;64.65
69938;DHT22;57248;47.320;15.998;2023-02-26T17:13:34;0.88;64.90
69938;DHT22;57248;47.320;15.998;2023-02-26T17:16:10;0.88;64.81
69938;DHT22;57248;47.320;15.998;2023-02-26T17:18:43;0.93;65.41
69938;DHT22;57248;47.320;15.998;2023-02-26T17:21:16;0.97;64.89
69938;DHT22;57248;47.320;15.998;2023-02-26T17:23:48;0.91;65.58
69938;DHT22;57248;47.320;15.998;2023-02-26T17:26:16;0.88;66.18
69938;DHT22;57248;47.320;15.998;2023-02-26T17:28:49;0.84;67.04
69938;DHT22;57248;47.320;15.998;2023-02-26T17:31:21;0.79;68.18
69938;DHT22;57248;47.320;15.998;2023-02-26T17:33:53;0.76;68.65
69938;DHT22;57248;47.320;15.998;2023-02-26T17:36:26;0.67;68.90
69938;DHT22;57248;47.320;15.998;2023-02-26T17:38:58;0.70;68.83
69938;DHT22;57248;47.320;15.998;2023-02-26T17:41:32;0.66;68.50
69938;DHT22;57248;47.320;15.998;2023-02-26T17:44:04;0.70;68.55
69938;DHT22;57248;47.320;15.998;2023-02-26T17:46:36;0.63;68.49
69938;DHT22;57248;47.320;15.998;2023-02-26T17:49:09;0.63;68.38
69938;DHT22;57248;47.320;15.998;2023-02-26T17:51:42;0.62;68.24
69938;DHT22;57248;47.320;15.998;2023-02-26T17:54:14;0.64;68.47
69938;DHT22;57248;47.320;15.998;2023-02-26T17:56:46;0.60;68.25
69938;DHT22;57248;47.320;15.998;2023-02-26T17:59:22;0.56;68.67
69938;DHT22;57248;47.320;15.998;2023-02-26T18:02:29;0.53;68.87
69938;DHT22;57248;47.320;15.998;2023-02-26T18:05:02;0.49;68.88
69938;DHT22;57248;47.320;15.998;2023-02-26T18:07:28;0.53;68.54
69938;DHT22;57248;47.320;15.998;2023-02-26T18:10:00;0.50;68.61
69938;DHT22;57248;47.320;15.998;2023-02-26T18:12:39;0.48;69.30
69938;DHT22;57248;47.320;15.998;2023-02-26T18:15:13;0.50;68.63
69938;DHT22;57248;47.320;15.998;2023-02-26T18:17:45;0.46;68.60
69938;DHT22;57248;47.320;15.998;2023-02-26T18:20:20;0.43;68.69
69938;DHT22;57248;47.320;15.998;2023-02-26T18:22:55;0.46;68.02
69938;DHT22;57248;47.320;15.998;2023-02-26T18:25:30;0.46;68.43
69938;DHT22;57248;47.320;15.998;2023-02-26T18:28:03;0.48;67.57
69938;DHT22;57248;47.320;15.998;2023-02-26T18:30:37;0.41;68.05
69938;DHT22;57248;47.320;15.998;2023-02-26T18:33:12;0.49;67.06
69938;DHT22;57248;47.320;15.998;2023-02-26T18:35:50;0.45;66.70
69938;DHT22;57248;47.320;15.998;2023-02-26T18:38:25;0.48;66.00
69938;DHT22;57248;47.320;15.998;2023-02-26T18:40:59;0.50;66.62
69938;DHT22;57248;47.320;15.998;2023-02-26T18:43:32;0.54;64.08
69938;DHT22;57248;47.320;15.998;2023-02-26T18:46:04;0.56;63.82
69938;DHT22;57248;47.320;15.998;2023-02-26T18:48:36;0.50;63.64
69938;DHT22;57248;47.320;15.998;2023-02-26T18:51:08;0.52;62.53
69938;DHT22;57248;47.320;15.998;2023-02-26T18:53:42;0.52;62.76
69938;DHT22;57248;47.320;15.998;2023-02-26T18:56:14;0.49;61.86
69938;DHT22;57248;47.320;15.998;2023-02-26T18:58:47;0.52;62.33
69938;DHT22;57248;47.320;15.998;2023-02-26T19:01:19;0.49;62.58
69938;DHT22;57248;47.320;15.998;2023-02-26T19:03:52;1.36;61.25
69938;DHT22;57248;47.320;15.998;2023-02-26T19:06:24;0.72;62.29
69938;DHT22;57248;47.320;15.998;2023-02-26T19:08:49;0.53;62.58
69938;DHT22;57248;47.320;15.998;2023-02-26T19:11:29;0.48;62.26
69938;DHT22;57248;47.320;15.998;2023-02-26T19:14:03;0.49;61.74
69938;DHT22;57248;47.320;15.998;2023-02-26T19:16:35;0.48;61.90
69938;DHT22;57248;47.320;15.998;2023-02-26T19:19:09;0.48;62.19
69938;DHT22;57248;47.320;15.998;2023-02-26T19:21:36;0.50;61.59
69938;DHT22;57248;47.320;15.998;2023-02-26T19:24:11;0.43;61.97
69938;DHT22;57248;47.320;15.998;2023-02-26T19:26:44;0.41;62.25
69938;DHT22;57248;47.320;15.998;2023-02-26T19:29:14;0.43;61.92
69938;DHT22;57248;47.320;15.998;2023-02-26T19:31:46;0.41;61.99